Alfordsville, Indiana
Current Conditions -  °F | °C
As of 7:35 PM on Friday 24 Oct 2014 (Local Time) from KDCY Reporting Station
Clear Clear  
Wind Chill: 52°   Ceiling: Unl
Heat Index: 52°   Visibility: 10mi
Dew Point: 50°   Wind: 5mph
Humidity: 91%   Direction: 180°S
Pressure: 30.03"   Gusts: NA
Location:  38.6074°N, 86.9234°W
Report Text: KDCY 250035Z AUTO 18004KT 10SM CLR 11/10 A3003 RMK AO2 T01130099
Loading
Personal Weather Stations






























Interactive Weather Map
Tropical Storm Tracking
New forecast layout! Learn more

10-Day Weather Forecast

Advertisements
Track Severe Weather on mobile